createdAt,value
2023-02-01T00:00:27.850Z,58.51
2023-02-01T00:02:54.585Z,59.22
2023-02-01T00:05:21.138Z,61.26
2023-02-01T00:07:49.991Z,61.71
2023-02-01T00:10:17.313Z,62.59
2023-02-01T00:12:44.313Z,60.57
2023-02-01T00:15:11.114Z,59.64
2023-02-01T00:17:38.174Z,59.20
2023-02-01T00:20:05.241Z,60.56
2023-02-01T00:22:31.750Z,59.50
2023-02-01T00:24:58.318Z,60.44
2023-02-01T00:27:24.857Z,60.63
2023-02-01T00:29:51.363Z,60.71
2023-02-01T00:32:18.227Z,61.85
2023-02-01T00:34:44.791Z,61.65
2023-02-01T00:37:11.716Z,60.70
2023-02-01T00:39:38.267Z,61.16
2023-02-01T00:42:04.841Z,62.03
2023-02-01T00:44:34.175Z,61.28
2023-02-01T00:47:01.341Z,61.48
2023-02-01T00:49:29.202Z,61.50
2023-02-01T00:51:56.074Z,61.47
2023-02-01T00:54:22.649Z,60.54
2023-02-01T00:56:49.202Z,60.62
2023-02-01T00:59:15.877Z,60.96
2023-02-01T01:01:42.449Z,60.88
2023-02-01T01:04:08.971Z,59.47
2023-02-01T01:06:35.637Z,60.63
2023-02-01T01:09:06.218Z,61.38
2023-02-01T01:11:36.150Z,60.89
2023-02-01T01:14:05.079Z,61.04
2023-02-01T01:16:32.443Z,60.77
2023-02-01T01:18:59.929Z,60.01
2023-02-01T01:21:27.235Z,60.10
2023-02-01T01:23:54.518Z,59.43
2023-02-01T01:26:26.460Z,58.96
2023-02-01T01:28:55.227Z,59.66
2023-02-01T01:31:22.092Z,60.65
2023-02-01T01:33:51.380Z,60.07
2023-02-01T01:36:18.248Z,59.62
2023-02-01T01:38:44.792Z,60.46
2023-02-01T01:41:16.539Z,59.61
2023-02-01T01:43:51.968Z,59.64
2023-02-01T01:46:24.252Z,59.29
2023-02-01T01:49:02.327Z,60.25
2023-02-01T01:51:33.217Z,58.84
2023-02-01T01:54:18.224Z,59.65
2023-02-01T01:56:49.596Z,60.87
2023-02-01T01:59:16.336Z,60.03
2023-02-01T02:01:43.419Z,60.59
2023-02-01T02:04:10.660Z,60.47
2023-02-01T02:06:56.929Z,60.64
2023-02-01T02:09:23.878Z,61.35
2023-02-01T02:11:50.458Z,61.55
2023-02-01T02:14:19.793Z,62.19
2023-02-01T02:17:31.000Z,60.36
2023-02-01T02:20:12.939Z,60.67
2023-02-01T02:23:12.548Z,60.95
2023-02-01T02:25:55.202Z,60.31
2023-02-01T02:28:40.520Z,55.60
2023-02-01T02:31:36.301Z,59.55
2023-02-01T02:34:18.051Z,49.23
2023-02-01T02:37:02.188Z,51.88
2023-02-01T02:39:40.958Z,51.45
2023-02-01T02:42:36.760Z,53.92
2023-02-01T02:45:26.450Z,59.74
2023-02-01T02:48:10.770Z,59.32
2023-02-01T02:51:03.082Z,60.07
2023-02-01T02:54:03.524Z,60.62
2023-02-01T02:56:49.242Z,62.53
2023-02-01T02:59:39.182Z,60.84
2023-02-01T03:02:25.579Z,60.12
2023-02-01T03:04:58.659Z,59.57
2023-02-01T03:07:45.162Z,57.19
2023-02-01T03:10:24.672Z,58.95
2023-02-01T03:12:57.404Z,62.09
2023-02-01T03:15:31.105Z,61.39
2023-02-01T03:18:01.584Z,61.24
2023-02-01T03:20:30.435Z,61.24
2023-02-01T03:23:00.150Z,62.37
2023-02-01T03:25:31.935Z,62.42
2023-02-01T03:28:07.027Z,62.84
2023-02-01T03:30:41.314Z,61.98
2023-02-01T03:33:21.819Z,61.49
2023-02-01T03:36:15.059Z,64.51
2023-02-01T03:38:59.644Z,64.29
2023-02-01T03:41:26.346Z,62.70
2023-02-01T03:44:02.167Z,60.13
2023-02-01T03:46:35.228Z,58.29
2023-02-01T03:49:07.837Z,58.34
2023-02-01T03:51:38.109Z,61.27
2023-02-01T03:54:07.528Z,62.01
2023-02-01T03:56:38.979Z,61.14
2023-02-01T03:59:05.567Z,62.63
2023-02-01T04:01:35.332Z,62.57
2023-02-01T04:04:01.901Z,62.55
2023-02-01T04:06:28.783Z,62.15
2023-02-01T04:08:59.804Z,63.23
2023-02-01T04:11:28.326Z,64.28
2023-02-01T04:13:54.860Z,64.52
2023-02-01T04:16:21.401Z,64.71
2023-02-01T04:18:48.072Z,64.45
2023-02-01T04:21:14.554Z,63.72
2023-02-01T04:23:41.038Z,61.89
2023-02-01T04:26:07.719Z,60.99
2023-02-01T04:28:34.281Z,62.73
2023-02-01T04:31:00.946Z,66.20
2023-02-01T04:33:27.571Z,66.65
2023-02-01T04:35:54.120Z,67.32
2023-02-01T04:38:20.674Z,65.98
2023-02-01T04:40:50.329Z,61.55
2023-02-01T04:43:18.060Z,63.83
2023-02-01T04:45:49.655Z,63.77
2023-02-01T04:48:17.474Z,66.25
2023-02-01T04:50:48.235Z,64.88
2023-02-01T04:53:18.639Z,61.29
2023-02-01T04:55:45.974Z,61.11
2023-02-01T04:58:12.506Z,64.79
2023-02-01T05:00:39.398Z,67.75
2023-02-01T05:03:06.322Z,67.97
2023-02-01T05:05:33.292Z,68.85
2023-02-01T05:07:59.838Z,67.45
2023-02-01T05:10:26.343Z,62.38
2023-02-01T05:13:11.817Z,60.40
2023-02-01T05:15:38.356Z,64.70
2023-02-01T05:18:05.225Z,66.26
2023-02-01T05:20:31.853Z,65.73
2023-02-01T05:22:58.426Z,67.17
2023-02-01T05:25:25.096Z,64.79
2023-02-01T05:27:51.884Z,67.83
2023-02-01T05:30:18.524Z,68.57
2023-02-01T05:32:45.038Z,67.88
2023-02-01T05:35:11.625Z,68.52
2023-02-01T05:37:38.129Z,68.53
2023-02-01T05:40:05.378Z,68.34
2023-02-01T05:42:31.898Z,68.94
2023-02-01T05:44:58.458Z,69.14
2023-02-01T05:47:24.972Z,69.19
2023-02-01T05:49:51.484Z,68.85
2023-02-01T05:52:20.395Z,69.54
2023-02-01T05:54:50.331Z,68.56
2023-02-01T05:57:17.234Z,69.17
2023-02-01T05:59:46.445Z,68.50
2023-02-01T06:02:13.093Z,69.52
2023-02-01T06:04:40.165Z,71.22
2023-02-01T06:07:08.635Z,70.60
2023-02-01T06:09:36.389Z,69.17
2023-02-01T06:12:04.177Z,70.12
2023-02-01T06:14:30.892Z,70.26
2023-02-01T06:16:57.541Z,71.49
2023-02-01T06:19:24.792Z,70.84
2023-02-01T06:21:51.321Z,70.98
2023-02-01T06:24:17.863Z,71.15
2023-02-01T06:26:44.445Z,70.14
2023-02-01T06:29:11.623Z,68.87
2023-02-01T06:31:38.247Z,69.01
2023-02-01T06:34:05.014Z,69.17
2023-02-01T06:36:31.914Z,70.73
2023-02-01T06:39:00.179Z,70.66
2023-02-01T06:41:29.479Z,70.50
2023-02-01T06:43:56.427Z,70.94
2023-02-01T06:46:23.025Z,70.54
2023-02-01T06:48:51.227Z,71.00
2023-02-01T06:51:26.733Z,70.18
2023-02-01T06:53:53.487Z,70.59
2023-02-01T06:56:21.311Z,69.69
2023-02-01T06:58:48.678Z,71.02
2023-02-01T07:01:16.256Z,70.21
2023-02-01T07:03:43.296Z,70.61
2023-02-01T07:06:10.440Z,69.50
2023-02-01T07:08:38.835Z,70.58
2023-02-01T07:11:10.447Z,70.42
2023-02-01T07:13:37.844Z,70.83
2023-02-01T07:16:07.406Z,70.10
2023-02-01T07:18:34.315Z,70.10
2023-02-01T07:21:01.162Z,68.74
2023-02-01T07:23:28.695Z,68.09
2023-02-01T07:26:00.205Z,66.77
2023-02-01T07:28:29.123Z,67.75
2023-02-01T07:30:55.706Z,68.06
2023-02-01T07:33:25.988Z,68.02
2023-02-01T07:35:54.357Z,68.17
2023-02-01T07:38:22.705Z,69.04
2023-02-01T07:40:49.353Z,68.49
2023-02-01T07:43:16.046Z,69.01
2023-02-01T07:45:42.595Z,69.66
2023-02-01T07:48:09.134Z,69.87
2023-02-01T07:50:35.635Z,69.97
2023-02-01T07:53:02.892Z,69.71
2023-02-01T07:55:29.544Z,69.49
2023-02-01T07:57:59.640Z,68.81
2023-02-01T08:00:45.851Z,68.89
2023-02-01T08:03:12.384Z,69.43
2023-02-01T08:05:39.122Z,69.25
2023-02-01T08:08:05.969Z,69.88
2023-02-01T08:10:33.150Z,69.03
2023-02-01T08:13:00.879Z,68.77
2023-02-01T08:15:29.077Z,68.59
2023-02-01T08:17:56.140Z,68.07
2023-02-01T08:20:24.994Z,66.83
2023-02-01T08:22:54.323Z,67.32
2023-02-01T08:25:21.382Z,67.38
2023-02-01T08:27:48.232Z,66.79
2023-02-01T08:30:14.887Z,66.91
2023-02-01T08:32:41.451Z,68.11
2023-02-01T08:35:09.330Z,66.97
2023-02-01T08:37:36.468Z,66.02
2023-02-01T08:40:04.218Z,65.98
2023-02-01T08:42:49.237Z,66.33
2023-02-01T08:45:15.815Z,66.17
2023-02-01T08:47:42.538Z,66.47
2023-02-01T08:50:10.137Z,65.99
2023-02-01T08:52:38.288Z,66.24
2023-02-01T08:55:06.639Z,66.62
2023-02-01T08:57:34.424Z,67.04
2023-02-01T09:00:01.671Z,67.45
2023-02-01T09:02:28.255Z,68.08
2023-02-01T09:04:56.677Z,68.05
2023-02-01T09:07:23.655Z,66.92
2023-02-01T09:09:50.189Z,66.92
2023-02-01T09:12:16.699Z,65.66
2023-02-01T09:14:43.242Z,62.00
2023-02-01T09:17:09.951Z,59.08
2023-02-01T09:19:36.433Z,57.97
2023-02-01T09:22:03.099Z,55.92
2023-02-01T09:24:29.689Z,56.52
2023-02-01T09:26:56.319Z,56.99
2023-02-01T09:29:22.889Z,57.44
2023-02-01T09:32:03.036Z,57.69
2023-02-01T09:34:30.910Z,58.84
2023-02-01T09:36:57.453Z,60.10
2023-02-01T09:39:24.271Z,62.32
2023-02-01T09:41:59.222Z,62.71
2023-02-01T09:44:43.891Z,62.02
2023-02-01T09:47:18.548Z,59.65
2023-02-01T09:50:11.118Z,61.58
2023-02-01T09:52:45.731Z,62.14
2023-02-01T09:55:23.716Z,62.77
2023-02-01T09:58:15.950Z,56.05
2023-02-01T10:00:51.682Z,59.38
2023-02-01T10:03:18.476Z,61.04
2023-02-01T10:06:08.600Z,59.74
2023-02-01T10:08:55.261Z,59.85
2023-02-01T10:11:51.035Z,60.26
2023-02-01T10:14:36.046Z,59.81
2023-02-01T10:17:20.038Z,60.62
2023-02-01T10:19:54.194Z,61.29
2023-02-01T10:22:51.827Z,61.20
2023-02-01T10:25:32.788Z,63.19
2023-02-01T10:28:02.507Z,63.00
2023-02-01T10:30:38.657Z,63.05
2023-02-01T10:33:18.382Z,62.86
2023-02-01T10:35:47.166Z,62.81
2023-02-01T10:38:25.404Z,63.11
2023-02-01T10:40:54.078Z,62.53
2023-02-01T10:43:20.985Z,62.58
2023-02-01T10:45:47.487Z,63.32
2023-02-01T10:48:14.275Z,62.84
2023-02-01T10:51:00.804Z,63.25
2023-02-01T10:53:40.528Z,62.24
2023-02-01T10:56:09.365Z,62.83
2023-02-01T10:58:38.066Z,62.14
2023-02-01T11:01:08.438Z,61.74
2023-02-01T11:03:46.195Z,63.71
2023-02-01T11:06:22.821Z,63.04
2023-02-01T11:08:51.926Z,64.33
2023-02-01T11:11:20.097Z,64.18
2023-02-01T11:14:11.790Z,63.33
2023-02-01T11:16:39.573Z,63.53
2023-02-01T11:19:07.197Z,62.79
2023-02-01T11:21:34.991Z,64.21
2023-02-01T11:24:04.158Z,64.63
2023-02-01T11:26:32.129Z,64.67
2023-02-01T11:29:05.303Z,65.15
2023-02-01T11:31:34.839Z,65.64
2023-02-01T11:34:09.893Z,65.79
2023-02-01T11:36:37.937Z,65.68
2023-02-01T11:39:13.842Z,65.56
2023-02-01T11:41:55.845Z,65.44
2023-02-01T11:44:34.520Z,65.73
2023-02-01T11:47:32.366Z,67.58
2023-02-01T11:50:13.376Z,67.72
2023-02-01T11:53:03.990Z,67.62
2023-02-01T11:55:58.130Z,67.13
2023-02-01T11:58:33.799Z,67.38
2023-02-01T12:01:23.934Z,67.46
2023-02-01T12:04:09.012Z,67.34
2023-02-01T12:06:58.592Z,67.93
2023-02-01T12:09:43.839Z,68.10
2023-02-01T12:12:48.013Z,69.47
2023-02-01T12:15:30.174Z,68.59
2023-02-01T12:18:14.052Z,68.96
2023-02-01T12:21:04.486Z,68.96
2023-02-01T12:23:42.023Z,71.23
2023-02-01T12:26:27.966Z,72.67
2023-02-01T12:29:08.260Z,70.76
2023-02-01T12:31:47.208Z,70.73
2023-02-01T12:34:31.281Z,71.44
2023-02-01T12:37:07.076Z,72.04
2023-02-01T12:39:46.467Z,72.05
2023-02-01T12:42:19.299Z,71.11
2023-02-01T12:44:55.196Z,72.18
2023-02-01T12:47:35.154Z,71.63
2023-02-01T12:50:09.138Z,72.58
2023-02-01T12:52:45.484Z,72.56
2023-02-01T12:55:39.920Z,73.32
2023-02-01T12:58:17.584Z,72.89
2023-02-01T13:00:53.841Z,73.01
2023-02-01T13:03:50.881Z,74.12
2023-02-01T13:06:22.736Z,72.68
2023-02-01T13:09:02.785Z,70.94
2023-02-01T13:11:33.962Z,70.89
2023-02-01T13:14:23.737Z,68.27
2023-02-01T13:17:00.506Z,70.73
2023-02-01T13:19:53.258Z,69.84
2023-02-01T13:22:33.940Z,69.01
2023-02-01T13:25:22.773Z,70.31
2023-02-01T13:27:50.081Z,68.36
2023-02-01T13:30:25.466Z,68.11
2023-02-01T13:33:53.194Z,67.59
2023-02-01T13:36:00.046Z,68.58
2023-02-01T13:38:36.780Z,68.84
2023-02-01T13:41:18.346Z,68.16
2023-02-01T13:43:50.550Z,67.42
2023-02-01T13:46:18.124Z,67.50
2023-02-01T13:48:52.715Z,68.14
2023-02-01T13:51:43.241Z,67.95
2023-02-01T13:54:27.155Z,67.81
2023-02-01T13:56:55.211Z,66.91
2023-02-01T13:59:40.403Z,65.35
2023-02-01T14:02:37.980Z,63.92
2023-02-01T14:05:08.742Z,65.58
2023-02-01T14:07:35.357Z,64.85
2023-02-01T14:10:39.673Z,65.90
2023-02-01T14:13:14.286Z,52.03
2023-02-01T14:15:40.930Z,47.81
2023-02-01T14:18:47.341Z,57.13
2023-02-01T14:21:31.959Z,62.38
2023-02-01T14:24:10.343Z,56.45
2023-02-01T14:26:52.007Z,61.67
2023-02-01T14:29:25.321Z,59.01
2023-02-01T14:32:06.973Z,57.83
2023-02-01T14:34:43.926Z,49.32
2023-02-01T14:37:18.321Z,59.90
2023-02-01T14:39:53.082Z,62.23
2023-02-01T14:42:38.045Z,63.83
2023-02-01T14:45:20.298Z,64.78
2023-02-01T14:47:50.654Z,63.92
2023-02-01T14:50:26.090Z,59.83
2023-02-01T14:53:10.642Z,63.51
2023-02-01T14:56:02.663Z,61.14
2023-02-01T14:58:35.385Z,61.69
2023-02-01T15:01:15.806Z,63.11
2023-02-01T15:03:55.475Z,62.86
2023-02-01T15:06:43.795Z,62.60
2023-02-01T15:09:15.662Z,63.42
2023-02-01T15:12:06.290Z,63.79
2023-02-01T15:14:37.061Z,61.72
2023-02-01T15:17:19.625Z,63.39
2023-02-01T15:20:14.446Z,64.01
2023-02-01T15:22:41.035Z,59.36
2023-02-01T15:25:21.380Z,56.92
2023-02-01T15:27:48.397Z,61.25
2023-02-01T15:30:27.393Z,63.16
2023-02-01T15:33:09.323Z,63.20
2023-02-01T15:35:41.841Z,62.30
2023-02-01T15:38:30.671Z,63.30
2023-02-01T15:41:14.047Z,63.33
2023-02-01T15:43:51.353Z,63.49
2023-02-01T15:46:30.841Z,63.55
2023-02-01T15:48:57.890Z,63.52
2023-02-01T15:51:33.528Z,62.79
2023-02-01T15:54:10.790Z,63.77
2023-02-01T15:56:40.186Z,65.36
2023-02-01T15:59:16.095Z,64.61
2023-02-01T16:01:43.365Z,64.13
2023-02-01T16:04:21.465Z,63.49
2023-02-01T16:06:50.951Z,62.95
2023-02-01T16:09:21.536Z,64.55
2023-02-01T16:12:00.117Z,62.25
2023-02-01T16:14:28.121Z,64.26
2023-02-01T16:16:58.194Z,63.44
2023-02-01T16:19:28.877Z,65.59
2023-02-01T16:21:56.838Z,64.23
2023-02-01T16:24:25.950Z,64.08
2023-02-01T16:26:52.906Z,61.13
2023-02-01T16:29:19.436Z,61.50
2023-02-01T16:31:46.226Z,60.05
2023-02-01T16:34:17.907Z,62.79
2023-02-01T16:36:53.079Z,53.49
2023-02-01T16:39:21.131Z,55.74
2023-02-01T16:41:48.033Z,61.66
2023-02-01T16:44:14.669Z,63.27
2023-02-01T16:46:44.610Z,64.34
2023-02-01T16:49:25.867Z,66.42
2023-02-01T16:51:57.298Z,67.73
2023-02-01T16:54:25.149Z,68.29
2023-02-01T16:56:51.657Z,64.74
2023-02-01T16:59:18.412Z,62.28
2023-02-01T17:01:45.184Z,64.38
2023-02-01T17:04:11.974Z,59.98
2023-02-01T17:06:39.424Z,64.57
2023-02-01T17:09:07.145Z,58.51
2023-02-01T17:11:34.514Z,57.89
2023-02-01T17:14:22.370Z,58.58
2023-02-01T17:16:50.593Z,57.36
2023-02-01T17:19:23.280Z,61.55
2023-02-01T17:21:54.871Z,64.67
2023-02-01T17:24:25.788Z,66.11
2023-02-01T17:26:52.721Z,65.12
2023-02-01T17:29:20.118Z,66.06
2023-02-01T17:31:51.007Z,66.65
2023-02-01T17:34:22.337Z,65.70
2023-02-01T17:36:49.772Z,65.24
2023-02-01T17:39:36.348Z,63.61
2023-02-01T17:42:04.883Z,63.33
2023-02-01T17:44:32.033Z,64.58
2023-02-01T17:46:59.680Z,67.95
2023-02-01T17:49:28.751Z,69.47
2023-02-01T17:51:57.552Z,70.77
2023-02-01T17:54:25.728Z,72.00
2023-02-01T17:56:52.756Z,72.64
2023-02-01T17:59:20.073Z,68.70
2023-02-01T18:01:47.000Z,69.04
2023-02-01T18:04:16.833Z,69.44
2023-02-01T18:06:44.130Z,68.62
2023-02-01T18:09:10.673Z,69.71
2023-02-01T18:11:37.939Z,67.89
2023-02-01T18:14:04.512Z,68.78
2023-02-01T18:16:33.892Z,69.43
2023-02-01T18:19:05.023Z,67.83
2023-02-01T18:21:37.966Z,67.38
2023-02-01T18:24:05.151Z,66.34
2023-02-01T18:26:31.943Z,66.86
2023-02-01T18:28:58.711Z,66.70
2023-02-01T18:31:29.789Z,66.11
2023-02-01T18:33:58.338Z,67.10
2023-02-01T18:36:26.026Z,64.55
2023-02-01T18:38:56.244Z,65.14
2023-02-01T18:41:23.967Z,66.68
2023-02-01T18:43:52.123Z,66.33
2023-02-01T18:46:19.283Z,66.65
2023-02-01T18:48:46.908Z,67.25
2023-02-01T18:51:19.684Z,67.25
2023-02-01T18:53:49.682Z,66.74
2023-02-01T18:56:20.708Z,66.64
2023-02-01T18:58:47.552Z,67.00
2023-02-01T19:01:17.113Z,65.49
2023-02-01T19:03:54.311Z,66.53
2023-02-01T19:06:27.098Z,66.32
2023-02-01T19:08:55.951Z,66.88
2023-02-01T19:11:22.833Z,67.57
2023-02-01T19:13:50.541Z,67.21
2023-02-01T19:16:17.697Z,67.26
2023-02-01T19:18:44.225Z,65.95
2023-02-01T19:21:13.081Z,66.18
2023-02-01T19:23:41.072Z,66.41
2023-02-01T19:26:12.545Z,67.85
2023-02-01T19:28:39.443Z,67.34
2023-02-01T19:31:08.186Z,67.72
2023-02-01T19:33:35.532Z,68.65
2023-02-01T19:36:05.788Z,68.12
2023-02-01T19:38:33.293Z,68.20
2023-02-01T19:41:00.317Z,67.85
2023-02-01T19:43:28.721Z,68.64
2023-02-01T19:45:55.995Z,68.61
2023-02-01T19:48:22.888Z,67.83
2023-02-01T19:50:49.832Z,67.12
2023-02-01T19:53:17.991Z,66.63
2023-02-01T19:55:45.814Z,66.60
2023-02-01T19:58:12.486Z,66.82
2023-02-01T20:00:38.156Z,66.92
2023-02-01T20:03:04.732Z,67.76
2023-02-01T20:05:31.326Z,68.49
2023-02-01T20:07:57.884Z,67.21
2023-02-01T20:10:24.620Z,67.12
2023-02-01T20:12:51.120Z,66.01
2023-02-01T20:15:17.668Z,66.01
2023-02-01T20:17:44.691Z,68.11
2023-02-01T20:20:11.851Z,67.03
2023-02-01T20:22:38.359Z,67.45
2023-02-01T20:25:06.054Z,66.26
2023-02-01T20:27:33.404Z,66.19
2023-02-01T20:29:59.942Z,65.00
2023-02-01T20:32:26.484Z,66.42
2023-02-01T20:34:54.204Z,64.97
2023-02-01T20:37:21.451Z,63.86
2023-02-01T20:39:48.050Z,62.73
2023-02-01T20:42:14.633Z,63.58
2023-02-01T20:44:41.125Z,64.98
2023-02-01T20:47:08.434Z,64.56
2023-02-01T20:49:35.675Z,64.19
2023-02-01T20:52:02.240Z,63.80
2023-02-01T20:54:28.761Z,66.06
2023-02-01T20:56:55.319Z,65.58
2023-02-01T20:59:22.207Z,65.88
2023-02-01T21:01:54.702Z,67.99
2023-02-01T21:04:25.085Z,66.29
2023-02-01T21:06:52.173Z,66.01
2023-02-01T21:09:18.664Z,66.55
2023-02-01T21:11:45.525Z,67.23
2023-02-01T21:14:12.739Z,67.29
2023-02-01T21:16:39.534Z,66.89
2023-02-01T21:19:06.768Z,67.40
2023-02-01T21:21:33.292Z,67.12
2023-02-01T21:24:00.540Z,66.99
2023-02-01T21:26:28.389Z,66.58
2023-02-01T21:28:56.344Z,66.66
2023-02-01T21:31:25.561Z,67.67
2023-02-01T21:33:52.628Z,68.52
2023-02-01T21:36:19.765Z,68.08
2023-02-01T21:38:51.252Z,68.44
2023-02-01T21:41:38.483Z,68.25
2023-02-01T21:44:06.034Z,67.80
2023-02-01T21:46:33.076Z,67.54
2023-02-01T21:49:05.338Z,68.05
2023-02-01T21:51:35.130Z,67.67
2023-02-01T21:54:02.108Z,68.05
2023-02-01T21:56:28.670Z,68.03
2023-02-01T21:58:55.511Z,68.57
2023-02-01T22:01:22.629Z,69.10
2023-02-01T22:03:49.864Z,68.35
2023-02-01T22:06:28.306Z,68.89
2023-02-01T22:08:55.240Z,68.71
2023-02-01T22:11:22.657Z,68.64
2023-02-01T22:13:49.683Z,69.28
2023-02-01T22:16:18.106Z,67.76
2023-02-01T22:18:45.608Z,67.63
2023-02-01T22:21:12.271Z,68.15
2023-02-01T22:23:38.874Z,67.71
2023-02-01T22:26:09.567Z,68.28
2023-02-01T22:28:40.325Z,68.54
2023-02-01T22:31:09.036Z,68.46
2023-02-01T22:33:37.235Z,68.49
2023-02-01T22:36:05.239Z,67.63
2023-02-01T22:38:33.466Z,67.24
2023-02-01T22:41:02.681Z,64.51
2023-02-01T22:43:29.394Z,63.91
2023-02-01T22:46:03.434Z,63.33
2023-02-01T22:48:31.232Z,63.73
2023-02-01T22:50:58.932Z,63.35
2023-02-01T22:53:26.189Z,62.86
2023-02-01T22:55:52.694Z,62.02
2023-02-01T22:58:19.630Z,62.49
2023-02-01T23:00:46.669Z,62.59
2023-02-01T23:03:13.194Z,61.94
2023-02-01T23:05:40.553Z,61.25
2023-02-01T23:08:07.085Z,62.13
2023-02-01T23:10:33.689Z,62.58
2023-02-01T23:13:00.202Z,62.45
2023-02-01T23:15:26.776Z,61.34
2023-02-01T23:17:53.339Z,61.59
2023-02-01T23:20:20.424Z,60.48
2023-02-01T23:22:48.873Z,61.02
2023-02-01T23:25:17.601Z,62.13
2023-02-01T23:27:44.580Z,61.97
2023-02-01T23:30:11.846Z,62.24
2023-02-01T23:32:38.607Z,62.33
2023-02-01T23:35:07.098Z,61.96
2023-02-01T23:37:33.609Z,61.10
2023-02-01T23:40:00.123Z,61.40
2023-02-01T23:42:26.685Z,60.82
2023-02-01T23:44:53.181Z,60.36
2023-02-01T23:47:19.705Z,61.82
2023-02-01T23:49:46.248Z,62.61
2023-02-01T23:52:12.769Z,61.90
2023-02-01T23:54:39.346Z,61.61
2023-02-01T23:57:05.858Z,60.25
2023-02-01T23:59:32.484Z,59.63
